Time;durP1;ratioP1;P1;durP2;ratioP2;P2;SDS_P1;SDS_P2;PMS_P1;PMS_P2;Temp;Humidity;BMP_temperature;BMP_pressure;BME280_temperature;BME280_humidity;BME280_pressure;Samples;Min_cycle;Max_cycle;Signal;HPM_P1;HPM_P2
2022/05/03 00:01:46;;;;;;;;;52.50;42.00;;;;;;;;5098658;27;45587;-77
2022/05/03 00:04:30;;;;;;;;;47.50;39.00;;;;;;;;5098592;27;47216;-77
2022/05/03 00:06:55;;;;;;;;;53.00;42.50;;;;;;;;5102361;27;45311;-77
2022/05/03 00:09:24;;;;;;;;;49.00;40.75;;;;;;;;5102594;27;45321;-77
2022/05/03 00:12:04;;;;;;;;;46.25;39.25;;;;;;;;5101960;27;45422;-78
2022/05/03 00:14:32;;;;;;;;;44.25;37.50;;;;;;;;5102141;27;46143;-77
2022/05/03 00:16:59;;;;;;;;;50.75;41.75;;;;;;;;5061287;28;45534;-77
2022/05/03 00:19:26;;;;;;;;;51.25;43.25;;;;;;;;5060229;28;45406;-77
2022/05/03 00:21:51;;;;;;;;;45.00;38.50;;;;;;;;5061415;28;45402;-78
2022/05/03 00:24:17;;;;;;;;;51.50;42.00;;;;;;;;5061375;28;46404;-78
2022/05/03 00:26:42;;;;;;;;;51.50;41.75;;;;;;;;5061515;28;45346;-77
2022/05/03 00:29:07;;;;;;;;;51.00;41.00;;;;;;;;5077074;28;45374;-77
2022/05/03 00:31:33;;;;;;;;;47.00;38.75;;;;;;;;5061126;28;45539;-77
2022/05/03 00:33:58;;;;;;;;;47.00;38.50;;;;;;;;5076795;28;47187;-77
2022/05/03 00:36:24;;;;;;;;;51.00;42.75;;;;;;;;5061305;28;45298;-78
2022/05/03 00:38:49;;;;;;;;;51.25;42.50;;;;;;;;5061444;28;45347;-77
2022/05/03 00:41:21;;;;;;;;;49.50;41.00;;;;;;;;5061147;28;45399;-77
2022/05/03 00:44:55;;;;;;;;;52.00;42.25;;;;;;;;5076609;28;47509;-77
2022/05/03 00:46:50;;;;;;;;;49.75;40.25;;;;;;;;5060615;28;45315;-77
2022/05/03 00:49:18;;;;;;;;;49.25;38.25;;;;;;;;5060836;28;45351;-77
2022/05/03 00:51:43;;;;;;;;;45.50;38.00;;;;;;;;5060838;28;45322;-77
2022/05/03 00:54:27;;;;;;;;;50.25;42.25;;;;;;;;5061038;28;45630;-77
2022/05/03 00:57:18;;;;;;;;;47.50;39.00;;;;;;;;5059623;28;45404;-78
2022/05/03 00:59:58;;;;;;;;;47.75;39.75;;;;;;;;5076216;28;45350;-77
2022/05/03 01:02:44;;;;;;;;;50.25;41.25;;;;;;;;5060645;28;45444;-77
2022/05/03 01:05:10;;;;;;;;;46.75;39.25;;;;;;;;5059810;28;45267;-77
2022/05/03 01:07:42;;;;;;;;;48.00;39.50;;;;;;;;5060646;28;45583;-77
2022/05/03 01:10:26;;;;;;;;;49.50;41.75;;;;;;;;5060834;28;45339;-78
2022/05/03 01:13:03;;;;;;;;;42.25;36.50;;;;;;;;5060577;28;45282;-77
2022/05/03 01:15:32;;;;;;;;;51.50;42.25;;;;;;;;5075333;27;45717;-78
2022/05/03 01:17:58;;;;;;;;;48.25;38.50;;;;;;;;5101367;27;45302;-78
2022/05/03 01:20:34;;;;;;;;;47.50;39.50;;;;;;;;5101256;27;45392;-78
2022/05/03 01:22:59;;;;;;;;;50.75;41.50;;;;;;;;5099463;27;47393;-78
2022/05/03 01:25:36;;;;;;;;;51.50;42.75;;;;;;;;5101213;27;45369;-78
2022/05/03 01:28:20;;;;;;;;;45.75;38.00;;;;;;;;5099898;27;45917;-77
2022/05/03 01:30:49;;;;;;;;;48.75;40.25;;;;;;;;5100836;27;45283;-78
2022/05/03 01:33:19;;;;;;;;;46.25;38.25;;;;;;;;5101100;27;45250;-77
2022/05/03 01:35:45;;;;;;;;;48.75;40.25;;;;;;;;5100697;27;45327;-76
2022/05/03 01:38:29;;;;;;;;;44.50;37.50;;;;;;;;5099638;27;45664;-78
2022/05/03 01:41:13;;;;;;;;;40.50;36.00;;;;;;;;5099758;27;45503;-77
2022/05/03 01:43:44;;;;;;;;;48.75;39.25;;;;;;;;5100865;27;45335;-78
2022/05/03 01:46:18;;;;;;;;;48.75;39.75;;;;;;;;5100786;27;46282;-78
2022/05/03 01:51:49;;;;;;;;;46.75;39.50;;;;;;;;5100436;27;45491;-77
2022/05/03 01:54:23;;;;;;;;;53.00;43.25;;;;;;;;5099538;27;47203;-78
2022/05/03 01:56:48;;;;;;;;;47.50;39.75;;;;;;;;5100656;27;45163;-77
2022/05/03 01:59:13;;;;;;;;;47.50;39.00;;;;;;;;5099421;27;45948;-77
2022/05/03 02:01:47;;;;;;;;;49.50;40.00;;;;;;;;5100604;27;45255;-77
2022/05/03 02:04:19;;;;;;;;;48.25;39.25;;;;;;;;5099218;27;46384;-77
2022/05/03 02:06:55;;;;;;;;;49.25;39.50;;;;;;;;5100312;27;46275;-77
2022/05/03 02:09:25;;;;;;;;;49.50;41.75;;;;;;;;5100485;27;45298;-77
2022/05/03 02:11:56;;;;;;;;;48.75;39.25;;;;;;;;5098992;27;45389;-78
2022/05/03 02:14:44;;;;;;;;;50.00;40.75;;;;;;;;5100307;27;45325;-77
2022/05/03 02:17:13;;;;;;;;;52.50;44.00;;;;;;;;5059530;28;45358;-77
2022/05/03 02:19:58;;;;;;;;;45.75;38.25;;;;;;;;5059549;28;45393;-78
2022/05/03 02:22:42;;;;;;;;;48.50;39.75;;;;;;;;5059695;28;45450;-78
2022/05/03 02:25:12;;;;;;;;;47.00;40.00;;;;;;;;5059519;28;45336;-78
2022/05/03 02:27:39;;;;;;;;;41.75;35.75;;;;;;;;5074105;28;48271;-77
2022/05/03 02:30:04;;;;;;;;;50.75;41.75;;;;;;;;5074964;28;45212;-77
2022/05/03 02:32:51;;;;;;;;;48.75;38.75;;;;;;;;5059468;28;45245;-78
2022/05/03 02:35:23;;;;;;;;;47.50;39.50;;;;;;;;5059445;28;45339;-78
2022/05/03 02:37:53;;;;;;;;;46.00;38.50;;;;;;;;5059127;28;45203;-77
2022/05/03 02:40:20;;;;;;;;;56.25;44.25;;;;;;;;5059287;28;45413;-77
2022/05/03 02:42:45;;;;;;;;;51.25;41.00;;;;;;;;5059166;28;45544;-78
2022/05/03 02:45:12;;;;;;;;;51.50;42.00;;;;;;;;5059253;28;45292;-77
2022/05/03 02:47:43;;;;;;;;;50.00;41.00;;;;;;;;5074962;28;47889;-78
2022/05/03 02:50:11;;;;;;;;;48.75;40.00;;;;;;;;5059378;28;45378;-78
2022/05/03 02:52:56;;;;;;;;;54.00;43.00;;;;;;;;5059154;28;45421;-78
2022/05/03 02:55:26;;;;;;;;;48.75;42.00;;;;;;;;5059136;28;45474;-78
2022/05/03 02:57:55;;;;;;;;;51.00;41.75;;;;;;;;5058863;28;46186;-78
2022/05/03 03:03:10;;;;;;;;;51.00;42.50;;;;;;;;5059019;28;45429;-78
2022/05/03 03:05:38;;;;;;;;;51.00;41.50;;;;;;;;5057673;28;46791;-77
2022/05/03 03:08:04;;;;;;;;;47.00;39.00;;;;;;;;5058744;28;45591;-78
2022/05/03 03:10:48;;;;;;;;;50.25;41.50;;;;;;;;5057788;28;45295;-78
2022/05/03 03:13:39;;;;;;;;;48.50;42.00;;;;;;;;5057801;28;45275;-79
2022/05/03 03:16:07;;;;;;;;;50.75;42.50;;;;;;;;5084303;27;45304;-78
2022/05/03 03:18:33;;;;;;;;;45.75;36.75;;;;;;;;5099500;27;46212;-78
2022/05/03 03:20:59;;;;;;;;;51.25;42.75;;;;;;;;5098179;27;45369;-78
2022/05/03 03:23:25;;;;;;;;;51.50;40.75;;;;;;;;5099676;27;45364;-77
2022/05/03 03:25:51;;;;;;;;;49.50;40.25;;;;;;;;5099656;27;45422;-77
2022/05/03 03:28:18;;;;;;;;;51.50;42.25;;;;;;;;5098018;27;47017;-77
2022/05/03 03:30:44;;;;;;;;;43.25;36.00;;;;;;;;5098916;27;45400;-78
2022/05/03 03:33:10;;;;;;;;;49.75;41.00;;;;;;;;5099399;27;45373;-78
2022/05/03 03:35:36;;;;;;;;;51.00;42.25;;;;;;;;5097691;27;46209;-78
2022/05/03 03:38:01;;;;;;;;;59.00;46.75;;;;;;;;5100208;27;46207;-78
2022/05/03 03:40:27;;;;;;;;;52.75;42.25;;;;;;;;5101588;27;45272;-78
2022/05/03 03:42:53;;;;;;;;;52.50;42.25;;;;;;;;5101546;27;45740;-78
2022/05/03 03:45:19;;;;;;;;;50.75;42.25;;;;;;;;5102677;27;45349;-77
2022/05/03 03:47:45;;;;;;;;;48.00;39.75;;;;;;;;5101461;27;48236;-78
2022/05/03 03:50:10;;;;;;;;;53.50;42.25;;;;;;;;5101673;27;45353;-78
2022/05/03 03:52:38;;;;;;;;;50.75;41.75;;;;;;;;5102700;27;45294;-77
2022/05/03 03:55:04;;;;;;;;;49.25;42.25;;;;;;;;5102735;27;45298;-78
2022/05/03 03:57:30;;;;;;;;;50.50;40.25;;;;;;;;5102458;27;45307;-78
2022/05/03 03:59:55;;;;;;;;;50.50;40.50;;;;;;;;5100824;27;46182;-78
2022/05/03 04:02:22;;;;;;;;;48.25;40.00;;;;;;;;5102597;27;45372;-78
2022/05/03 04:04:48;;;;;;;;;46.50;39.00;;;;;;;;5102510;27;45313;-78
2022/05/03 04:07:13;;;;;;;;;49.00;41.75;;;;;;;;5102338;27;46279;-78
2022/05/03 04:09:38;;;;;;;;;49.00;40.00;;;;;;;;5100986;27;45330;-78
2022/05/03 04:12:04;;;;;;;;;51.25;42.00;;;;;;;;5118359;27;45640;-78
2022/05/03 04:14:30;;;;;;;;;47.25;39.25;;;;;;;;5102346;27;45419;-78
2022/05/03 04:16:55;;;;;;;;;48.25;40.00;;;;;;;;5081781;27;46541;-77
2022/05/03 04:19:21;;;;;;;;;51.75;43.75;;;;;;;;5080273;28;45561;-78
2022/05/03 04:21:47;;;;;;;;;49.75;40.50;;;;;;;;5081908;27;45476;-78
2022/05/03 04:24:12;;;;;;;;;49.75;42.00;;;;;;;;5080461;28;47086;-79
2022/05/03 04:26:37;;;;;;;;;47.50;40.00;;;;;;;;5081701;27;46004;-78
2022/05/03 04:29:03;;;;;;;;;50.25;39.75;;;;;;;;5097717;27;45753;-78
2022/05/03 04:31:30;;;;;;;;;48.75;39.75;;;;;;;;5081482;27;45220;-78
2022/05/03 04:33:56;;;;;;;;;49.75;41.00;;;;;;;;5080359;28;46189;-78
2022/05/03 04:36:22;;;;;;;;;50.25;41.25;;;;;;;;5079984;28;47053;-78
2022/05/03 04:38:48;;;;;;;;;51.75;42.25;;;;;;;;5081633;27;45370;-77
2022/05/03 04:41:13;;;;;;;;;50.50;41.25;;;;;;;;5097407;27;45444;-78
2022/05/03 04:43:39;;;;;;;;;48.50;40.25;;;;;;;;5081680;28;45373;-77
2022/05/03 04:46:04;;;;;;;;;45.00;38.25;;;;;;;;5081170;27;46536;-77
2022/05/03 04:48:29;;;;;;;;;50.25;41.00;;;;;;;;5081128;27;45273;-77
2022/05/03 04:50:54;;;;;;;;;52.50;43.75;;;;;;;;5080726;28;45255;-79
2022/05/03 04:53:21;;;;;;;;;50.00;42.25;;;;;;;;5081022;28;45463;-77
2022/05/03 04:55:46;;;;;;;;;51.00;41.50;;;;;;;;5081170;27;45351;-78
2022/05/03 04:58:12;;;;;;;;;49.00;42.00;;;;;;;;5079397;27;45363;-76
2022/05/03 05:00:37;;;;;;;;;51.75;42.00;;;;;;;;5079596;28;45303;-77
2022/05/03 05:03:02;;;;;;;;;48.75;39.75;;;;;;;;5081327;27;45318;-78
2022/05/03 05:05:27;;;;;;;;;51.50;42.75;;;;;;;;5079619;28;47198;-77
2022/05/03 05:07:53;;;;;;;;;50.75;42.75;;;;;;;;5080993;28;45253;-80
2022/05/03 05:10:24;;;;;;;;;54.00;44.00;;;;;;;;5079974;28;45285;-77
2022/05/03 05:12:55;;;;;;;;;49.75;41.75;;;;;;;;5079122;28;47261;-76
2022/05/03 05:15:26;;;;;;;;;50.50;42.25;;;;;;;;5087601;27;46408;-77
2022/05/03 05:17:52;;;;;;;;;47.75;40.25;;;;;;;;5100611;27;45338;-77
2022/05/03 05:20:18;;;;;;;;;49.75;41.25;;;;;;;;5085710;27;45409;-80
2022/05/03 05:22:44;;;;;;;;;50.75;41.50;;;;;;;;5080572;27;45308;-79
2022/05/03 05:25:09;;;;;;;;;52.50;42.75;;;;;;;;5080809;27;46046;-79
2022/05/03 05:27:35;;;;;;;;;49.25;41.75;;;;;;;;5080883;27;45305;-79
2022/05/03 05:30:00;;;;;;;;;52.50;42.50;;;;;;;;5080801;27;45304;-79
2022/05/03 05:32:25;;;;;;;;;53.25;43.50;;;;;;;;5080646;27;45155;-78
2022/05/03 05:34:50;;;;;;;;;56.00;45.25;;;;;;;;5079292;28;47461;-79
2022/05/03 05:37:16;;;;;;;;;47.50;40.50;;;;;;;;5080668;27;45345;-78
2022/05/03 05:39:41;;;;;;;;;52.50;42.75;;;;;;;;5080743;27;45333;-79
2022/05/03 05:42:06;;;;;;;;;47.75;40.25;;;;;;;;5079211;28;47141;-79
2022/05/03 05:44:31;;;;;;;;;47.25;39.50;;;;;;;;5080473;28;46524;-79
2022/05/03 05:46:56;;;;;;;;;45.25;39.00;;;;;;;;5079209;28;45406;-78
2022/05/03 05:49:22;;;;;;;;;49.00;42.00;;;;;;;;5079334;28;45236;-79
2022/05/03 05:51:47;;;;;;;;;55.25;42.75;;;;;;;;5078974;28;46361;-78
2022/05/03 05:54:12;;;;;;;;;53.00;42.75;;;;;;;;5078995;28;47090;-79
2022/05/03 05:56:38;;;;;;;;;52.75;43.50;;;;;;;;5080472;28;45306;-79
2022/05/03 05:59:03;;;;;;;;;51.25;43.00;;;;;;;;5080577;27;45306;-79
2022/05/03 06:01:38;;;;;;;;;53.00;44.00;;;;;;;;5079002;28;45481;-79
2022/05/03 06:04:04;;;;;;;;;52.25;42.75;;;;;;;;5080324;28;45566;-79
2022/05/03 06:06:29;;;;;;;;;49.50;41.00;;;;;;;;5078669;28;45473;-79
2022/05/03 06:08:54;;;;;;;;;54.25;43.00;;;;;;;;5080291;27;45322;-78
2022/05/03 06:11:19;;;;;;;;;52.00;43.00;;;;;;;;5078631;28;46112;-80
2022/05/03 06:13:44;;;;;;;;;46.50;40.00;;;;;;;;5080203;27;45941;-79
2022/05/03 06:16:10;;;;;;;;;49.25;39.75;;;;;;;;5092308;27;45319;-78
2022/05/03 06:18:38;;;;;;;;;48.50;41.00;;;;;;;;5099345;27;45291;-79
2022/05/03 06:21:05;;;;;;;;;53.25;42.25;;;;;;;;5099071;27;46033;-79
2022/05/03 06:23:31;;;;;;;;;46.00;38.00;;;;;;;;5100132;27;46032;-79
2022/05/03 06:25:56;;;;;;;;;50.50;42.50;;;;;;;;5100510;27;45218;-79
2022/05/03 06:28:21;;;;;;;;;50.50;42.25;;;;;;;;5100515;27;45312;-79
2022/05/03 06:30:46;;;;;;;;;52.25;42.75;;;;;;;;5099941;27;45646;-78
2022/05/03 06:33:12;;;;;;;;;51.75;41.75;;;;;;;;5098873;27;47303;-79
2022/05/03 06:35:37;;;;;;;;;49.75;41.25;;;;;;;;5100115;27;45248;-80
2022/05/03 06:38:02;;;;;;;;;51.75;42.25;;;;;;;;5100809;27;45555;-79
2022/05/03 06:40:28;;;;;;;;;55.00;43.50;;;;;;;;5098894;27;47320;-79
2022/05/03 06:42:54;;;;;;;;;52.00;43.00;;;;;;;;5100095;27;45456;-79
2022/05/03 06:45:20;;;;;;;;;51.00;41.50;;;;;;;;5098598;27;45647;-79
2022/05/03 06:47:48;;;;;;;;;48.00;39.25;;;;;;;;5100029;27;45344;-81
2022/05/03 06:50:13;;;;;;;;;50.25;42.00;;;;;;;;5098974;27;46276;-80
2022/05/03 06:52:38;;;;;;;;;48.75;40.00;;;;;;;;5099810;27;45412;-79
2022/05/03 06:55:05;;;;;;;;;50.00;40.25;;;;;;;;5100110;27;45347;-80
2022/05/03 06:57:30;;;;;;;;;49.75;41.25;;;;;;;;5100435;27;45345;-80
2022/05/03 06:59:56;;;;;;;;;49.75;41.25;;;;;;;;5098325;27;47105;-81
2022/05/03 07:02:21;;;;;;;;;50.75;41.25;;;;;;;;5100251;27;46258;-78
2022/05/03 07:04:47;;;;;;;;;52.75;43.50;;;;;;;;5098518;27;45429;-77
2022/05/03 07:07:14;;;;;;;;;50.50;43.00;;;;;;;;5098763;27;45275;-78
2022/05/03 07:09:39;;;;;;;;;48.75;40.50;;;;;;;;5099774;27;45254;-79
2022/05/03 07:12:04;;;;;;;;;54.25;43.25;;;;;;;;5099514;27;45392;-78
2022/05/03 07:14:30;;;;;;;;;47.00;39.50;;;;;;;;5103040;27;45312;-79
2022/05/03 07:16:55;;;;;;;;;53.50;43.75;;;;;;;;5083355;27;45592;-78
2022/05/03 07:24:49;;;;;;;;;50.75;41.25;;;;;;;;5083231;28;45424;-78
2022/05/03 07:27:14;;;;;;;;;50.75;42.00;;;;;;;;5082920;28;45337;-79
2022/05/03 07:29:39;;;;;;;;;48.50;40.50;;;;;;;;5082490;27;45270;-79
2022/05/03 07:32:04;;;;;;;;;51.50;41.25;;;;;;;;5082355;28;45409;-79
2022/05/03 07:34:30;;;;;;;;;47.50;40.00;;;;;;;;5082232;28;45194;-80
2022/05/03 07:36:55;;;;;;;;;51.75;43.25;;;;;;;;5082512;27;45341;-79
2022/05/03 07:39:20;;;;;;;;;47.75;40.00;;;;;;;;5082569;27;45321;-79
2022/05/03 07:41:45;;;;;;;;;51.25;41.75;;;;;;;;5082710;27;45349;-79
2022/05/03 07:44:11;;;;;;;;;50.75;42.25;;;;;;;;5080851;28;45329;-79
2022/05/03 07:46:36;;;;;;;;;47.25;40.00;;;;;;;;5082752;27;45313;-79
2022/05/03 07:49:01;;;;;;;;;50.25;41.00;;;;;;;;5082499;27;45507;-79
2022/05/03 07:51:26;;;;;;;;;44.00;37.75;;;;;;;;5080956;28;47203;-79
2022/05/03 07:53:51;;;;;;;;;49.50;41.50;;;;;;;;5082446;27;45310;-79
2022/05/03 07:56:17;;;;;;;;;47.00;40.25;;;;;;;;5082483;27;45524;-81
2022/05/03 07:58:42;;;;;;;;;47.00;38.75;;;;;;;;5082781;28;45505;-80
2022/05/03 08:01:07;;;;;;;;;48.75;38.75;;;;;;;;5082070;27;45283;-80
2022/05/03 08:03:32;;;;;;;;;48.00;40.75;;;;;;;;5082842;27;45292;-80
2022/05/03 08:05:58;;;;;;;;;45.00;37.25;;;;;;;;5082414;27;45328;-79
2022/05/03 08:08:23;;;;;;;;;50.25;41.25;;;;;;;;5080944;28;46822;-80
2022/05/03 08:10:49;;;;;;;;;50.50;39.50;;;;;;;;5080626;28;47862;-79
2022/05/03 08:13:14;;;;;;;;;41.25;37.00;;;;;;;;5082378;27;45212;-79
2022/05/03 08:15:39;;;;;;;;;45.00;37.00;;;;;;;;5091435;27;45306;-79
2022/05/03 08:18:05;;;;;;;;;47.25;39.25;;;;;;;;5102610;27;45290;-79
2022/05/03 08:20:30;;;;;;;;;46.50;38.50;;;;;;;;5101259;27;48535;-81
2022/05/03 08:22:55;;;;;;;;;43.50;36.75;;;;;;;;5102590;27;45148;-81
2022/05/03 08:25:20;;;;;;;;;43.50;38.00;;;;;;;;5101750;27;45313;-80
2022/05/03 08:27:46;;;;;;;;;43.00;34.50;;;;;;;;5102125;27;45523;-80
2022/05/03 08:30:12;;;;;;;;;44.50;37.25;;;;;;;;5102048;27;46341;-79
2022/05/03 08:32:37;;;;;;;;;40.75;33.75;;;;;;;;5100617;27;45557;-79
2022/05/03 08:35:02;;;;;;;;;42.00;35.25;;;;;;;;5100870;27;45525;-79
2022/05/03 08:42:56;;;;;;;;;38.75;33.00;;;;;;;;5102200;27;45280;-81
2022/05/03 08:45:21;;;;;;;;;38.25;32.75;;;;;;;;5101418;27;45292;-79
2022/05/03 08:47:47;;;;;;;;;26.50;26.00;;;;;;;;5100813;27;46665;-79
2022/05/03 08:50:13;;;;;;;;;42.00;33.50;;;;;;;;5102227;27;46268;-81
2022/05/03 08:52:44;;;;;;;;;43.50;35.00;;;;;;;;5101758;27;45269;-79
2022/05/03 08:55:12;;;;;;;;;38.75;33.75;;;;;;;;5102100;27;45404;-79
2022/05/03 08:57:38;;;;;;;;;53.00;43.50;;;;;;;;5100611;27;47593;-78
2022/05/03 09:00:05;;;;;;;;;40.00;34.75;;;;;;;;5101627;27;46886;-81
2022/05/03 09:02:30;;;;;;;;;39.50;33.00;;;;;;;;5100856;27;45362;-79
2022/05/03 09:04:55;;;;;;;;;36.75;32.75;;;;;;;;5102339;27;45515;-81
2022/05/03 09:07:24;;;;;;;;;38.00;33.00;;;;;;;;5102501;27;45378;-78
2022/05/03 09:09:51;;;;;;;;;40.00;33.50;;;;;;;;5100410;27;47431;-80
2022/05/03 09:12:26;;;;;;;;;39.50;34.00;;;;;;;;5102163;27;45329;-79
2022/05/03 09:14:52;;;;;;;;;31.00;29.25;;;;;;;;5099438;27;45241;-79
2022/05/03 09:17:33;;;;;;;;;37.75;33.75;;;;;;;;5081543;28;46069;-80
2022/05/03 09:19:58;;;;;;;;;35.50;32.50;;;;;;;;5081160;27;46382;-80
2022/05/03 09:25:12;;;;;;;;;42.00;34.75;;;;;;;;5080991;28;45307;-79
2022/05/03 09:27:37;;;;;;;;;40.75;35.00;;;;;;;;5080953;27;45242;-79
2022/05/03 09:30:07;;;;;;;;;44.50;36.75;;;;;;;;5081430;27;45283;-80
2022/05/03 09:32:38;;;;;;;;;45.50;37.75;;;;;;;;5079266;28;45384;-78
2022/05/03 09:35:04;;;;;;;;;54.50;42.00;;;;;;;;5079345;28;45378;-78
2022/05/03 09:37:42;;;;;;;;;37.75;33.50;;;;;;;;5080681;27;45280;-79
2022/05/03 09:40:08;;;;;;;;;41.00;35.00;;;;;;;;5081876;27;46160;-79
2022/05/03 09:42:36;;;;;;;;;42.25;35.00;;;;;;;;5080587;27;45375;-80
2022/05/03 09:45:04;;;;;;;;;41.75;35.00;;;;;;;;5079494;28;45557;-80
2022/05/03 09:47:29;;;;;;;;;41.50;34.75;;;;;;;;5079255;28;46218;-80
2022/05/03 09:49:54;;;;;;;;;43.00;37.00;;;;;;;;5080336;27;46297;-80
2022/05/03 09:52:27;;;;;;;;;50.75;40.25;;;;;;;;5096324;27;45288;-78
2022/05/03 09:54:52;;;;;;;;;47.00;38.50;;;;;;;;5079117;28;45311;-79
2022/05/03 09:57:22;;;;;;;;;31.33;30.00;;;;;;;;5079134;28;47095;-78
2022/05/03 09:59:48;;;;;;;;;40.67;33.33;;;;;;;;5080637;27;45452;-79
2022/05/03 10:02:15;;;;;;;;;30.67;28.67;;;;;;;;5081168;27;45294;-78
2022/05/03 10:04:40;;;;;;;;;29.33;29.00;;;;;;;;5080011;28;45312;-79
2022/05/03 10:07:06;;;;;;;;;32.67;31.00;;;;;;;;5080285;27;45363;-79
2022/05/03 10:09:32;;;;;;;;;46.50;39.50;;;;;;;;5079125;28;47164;-79
2022/05/03 10:11:58;;;;;;;;;34.67;31.00;;;;;;;;5080124;27;45245;-80
2022/05/03 10:14:24;;;;;;;;;33.67;31.33;;;;;;;;5080175;27;45291;-81
2022/05/03 10:22:17;;;;;;;;;31.33;29.33;;;;;;;;5100862;27;45337;-78
2022/05/03 10:24:51;;;;;;;;;27.67;27.67;;;;;;;;5116572;27;45312;-79
2022/05/03 10:27:21;;;;;;;;;33.00;30.67;;;;;;;;5101432;27;45354;-79
2022/05/03 10:30:06;;;;;;;;;32.67;29.67;;;;;;;;5099261;27;48477;-80
2022/05/03 10:32:32;;;;;;;;;29.33;28.33;;;;;;;;5101338;27;45355;-80
2022/05/03 10:34:59;;;;;;;;;36.00;31.00;;;;;;;;5100301;27;45318;-81
2022/05/03 10:37:33;;;;;;;;;27.33;26.00;;;;;;;;5100225;27;45463;-79
2022/05/03 10:40:14;;;;;;;;;66.00;51.00;;;;;;;;5100178;27;45388;-79
2022/05/03 10:42:39;;;;;;;;;70.00;58.00;;;;;;;;5100180;27;45332;-79
2022/05/03 10:45:14;;;;;;;;;28.67;27.33;;;;;;;;5100831;27;45235;-81
2022/05/03 10:47:41;;;;;;;;;28.67;28.33;;;;;;;;5098507;27;46327;-81
2022/05/03 10:50:12;;;;;;;;;41.33;33.67;;;;;;;;5099867;27;45408;-79
2022/05/03 10:52:43;;;;;;;;;31.67;30.33;;;;;;;;5099964;27;45422;-80
2022/05/03 10:55:09;;;;;;;;;26.00;26.00;;;;;;;;5100594;27;45415;-80
2022/05/03 10:57:53;;;;;;;;;35.00;29.67;;;;;;;;5098634;27;46213;-79
2022/05/03 11:00:38;;;;;;;;;48.25;38.75;;;;;;;;5098541;27;47289;-79
2022/05/03 11:03:19;;;;;;;;;59.50;47.00;;;;;;;;5099805;27;45302;-79
2022/05/03 11:06:04;;;;;;;;;29.00;27.33;;;;;;;;5098520;27;45385;-79
2022/05/03 11:08:30;;;;;;;;;25.00;25.00;;;;;;;;5100516;27;45373;-79
2022/05/03 11:10:55;;;;;;;;;28.67;28.00;;;;;;;;5099710;27;46099;-80
2022/05/03 11:13:39;;;;;;;;;61.25;48.75;;;;;;;;5098439;27;45291;-79
2022/05/03 11:16:20;;;;;;;;;49.25;39.75;;;;;;;;5086777;27;45244;-79
2022/05/03 11:18:45;;;;;;;;;41.33;33.33;;;;;;;;5077955;28;45814;-79
2022/05/03 11:21:14;;;;;;;;;64.50;51.75;;;;;;;;5079365;27;46516;-79
2022/05/03 11:23:53;;;;;;;;;47.75;40.00;;;;;;;;5079266;28;45335;-79
2022/05/03 11:26:19;;;;;;;;;28.00;26.00;;;;;;;;5078817;28;45342;-79
2022/05/03 11:28:46;;;;;;;;;25.67;25.67;;;;;;;;5079071;27;45283;-80
2022/05/03 11:31:12;;;;;;;;;26.33;25.00;;;;;;;;5078580;27;46061;-80
2022/05/03 11:33:55;;;;;;;;;26.00;25.67;;;;;;;;5079487;27;45266;-80
2022/05/03 11:36:20;;;;;;;;;56.00;46.00;;;;;;;;5079093;27;45293;-81
2022/05/03 11:38:49;;;;;;;;;40.67;34.00;;;;;;;;5077584;28;47248;-79
2022/05/03 11:41:15;;;;;;;;;36.67;32.67;;;;;;;;5077758;28;47148;-79
2022/05/03 11:43:40;;;;;;;;;24.00;23.67;;;;;;;;5079272;27;45369;-82
2022/05/03 11:46:05;;;;;;;;;23.67;23.33;;;;;;;;5080083;27;45393;-80
2022/05/03 11:48:31;;;;;;;;;24.00;24.00;;;;;;;;5077633;28;46084;-82
2022/05/03 11:56:24;;;;;;;;;26.33;25.33;;;;;;;;5078959;28;45369;-81
2022/05/03 11:58:50;;;;;;;;;28.00;27.67;;;;;;;;5078114;28;45862;-81
2022/05/03 12:01:15;;;;;;;;;27.33;25.00;;;;;;;;5082292;28;46493;-81
2022/05/03 12:03:44;;;;;;;;;21.33;21.33;;;;;;;;5081027;28;45337;-79
2022/05/03 12:06:10;;;;;;;;;30.33;25.67;;;;;;;;5082611;27;45326;-80
2022/05/03 12:08:35;;;;;;;;;30.33;27.67;;;;;;;;5082103;27;45248;-81
2022/05/03 12:11:00;;;;;;;;;27.67;27.67;;;;;;;;5082168;27;45316;-80
2022/05/03 12:13:27;;;;;;;;;23.33;22.67;;;;;;;;5082955;28;45342;-81
2022/05/03 12:15:58;;;;;;;;;26.33;26.33;;;;;;;;5092286;27;45321;-81
2022/05/03 12:18:31;;;;;;;;;25.67;24.67;;;;;;;;5102085;27;47333;-81
2022/05/03 12:20:58;;;;;;;;;23.67;23.00;;;;;;;;5102561;27;45957;-81
2022/05/03 12:23:23;;;;;;;;;22.00;21.67;;;;;;;;5102978;27;45385;-79
2022/05/03 12:25:50;;;;;;;;;28.33;25.67;;;;;;;;5103223;27;45212;-78
2022/05/03 12:28:16;;;;;;;;;24.67;23.00;;;;;;;;5102197;27;45246;-80
2022/05/03 12:30:42;;;;;;;;;34.00;29.67;;;;;;;;5101817;27;46429;-80
2022/05/03 12:33:08;;;;;;;;;22.00;19.67;;;;;;;;5103151;27;45213;-82
2022/05/03 12:35:35;;;;;;;;;23.33;22.67;;;;;;;;5102587;27;45464;-81
2022/05/03 12:38:11;;;;;;;;;20.67;19.00;;;;;;;;5102224;27;45415;-82
2022/05/03 12:40:43;;;;;;;;;26.33;25.67;;;;;;;;5102381;27;46762;-80
2022/05/03 12:43:09;;;;;;;;;44.25;36.50;;;;;;;;5102017;27;45460;-79
2022/05/03 12:45:34;;;;;;;;;38.67;33.00;;;;;;;;5101889;27;45437;-79
2022/05/03 12:47:59;;;;;;;;;25.33;25.00;;;;;;;;5102225;27;45231;-81
2022/05/03 12:50:24;;;;;;;;;31.67;29.00;;;;;;;;5102480;27;45591;-80
2022/05/03 12:52:49;;;;;;;;;26.33;25.00;;;;;;;;5101970;27;45516;-80
2022/05/03 12:55:15;;;;;;;;;25.00;24.00;;;;;;;;5118281;27;45419;-83
2022/05/03 13:00:24;;;;;;;;;27.67;26.67;;;;;;;;5102057;27;45905;-80
2022/05/03 13:02:49;;;;;;;;;38.67;34.00;;;;;;;;5100505;27;45369;-80
2022/05/03 13:05:14;;;;;;;;;25.33;23.67;;;;;;;;5102109;27;45409;-80
2022/05/03 13:07:40;;;;;;;;;22.00;22.00;;;;;;;;5101806;27;45425;-79
2022/05/03 13:10:05;;;;;;;;;26.00;25.00;;;;;;;;5101572;27;45220;-80
2022/05/03 13:12:30;;;;;;;;;22.33;22.33;;;;;;;;5100014;27;46142;-81
2022/05/03 13:14:56;;;;;;;;;24.00;24.00;;;;;;;;5098202;27;45315;-80
2022/05/03 13:17:21;;;;;;;;;16.33;16.33;;;;;;;;5081031;27;45339;-81
2022/05/03 13:19:46;;;;;;;;;21.00;19.33;;;;;;;;5080960;27;45475;-81
2022/05/03 13:22:12;;;;;;;;;22.00;21.33;;;;;;;;5081414;27;45341;-80
2022/05/03 13:24:37;;;;;;;;;25.67;25.67;;;;;;;;5081182;27;45578;-81
2022/05/03 13:27:02;;;;;;;;;25.67;23.67;;;;;;;;5079603;28;46427;-80
2022/05/03 13:29:30;;;;;;;;;22.33;22.00;;;;;;;;5080644;27;45909;-81
2022/05/03 13:31:55;;;;;;;;;26.00;25.00;;;;;;;;5079193;28;45267;-81
2022/05/03 13:34:20;;;;;;;;;17.67;17.00;;;;;;;;5081383;27;45309;-79
2022/05/03 13:42:13;;;;;;;;;17.67;16.33;;;;;;;;5081042;28;45445;-82
2022/05/03 13:44:39;;;;;;;;;15.33;15.33;;;;;;;;5080543;27;45370;-81
2022/05/03 13:47:05;;;;;;;;;18.33;17.33;;;;;;;;5080769;27;45231;-81
2022/05/03 13:49:30;;;;;;;;;10.67;10.67;;;;;;;;5079101;28;47346;-79
2022/05/03 13:51:57;;;;;;;;;19.33;19.33;;;;;;;;5078913;28;45263;-82
2022/05/03 13:54:22;;;;;;;;;25.00;20.33;;;;;;;;5079326;28;45325;-80
2022/05/03 13:56:47;;;;;;;;;33.67;30.33;;;;;;;;5078861;28;46485;-82
2022/05/03 13:59:13;;;;;;;;;25.00;24.00;;;;;;;;5080228;28;45375;-81
2022/05/03 14:01:38;;;;;;;;;31.33;29.33;;;;;;;;5080516;27;45396;-82
2022/05/03 14:04:04;;;;;;;;;14.33;14.33;;;;;;;;5080872;27;45444;-79
2022/05/03 14:06:29;;;;;;;;;17.67;17.67;;;;;;;;5080269;28;45358;-83
2022/05/03 14:08:55;;;;;;;;;18.67;17.67;;;;;;;;5078921;28;47100;-80
2022/05/03 14:11:20;;;;;;;;;15.67;15.00;;;;;;;;5080276;27;45394;-79
2022/05/03 14:13:45;;;;;;;;;22.33;22.33;;;;;;;;5078582;28;45385;-79
2022/05/03 14:16:12;;;;;;;;;13.33;13.33;;;;;;;;5092815;27;46480;-80
2022/05/03 14:18:37;;;;;;;;;14.33;13.00;;;;;;;;5099262;27;47165;-78
2022/05/03 14:21:02;;;;;;;;;17.00;14.33;;;;;;;;5099951;27;45803;-79
2022/05/03 14:23:28;;;;;;;;;15.67;15.00;;;;;;;;5100184;27;45607;-82
2022/05/03 14:25:53;;;;;;;;;12.00;12.00;;;;;;;;5100687;27;45344;-81
2022/05/03 14:28:19;;;;;;;;;13.00;13.00;;;;;;;;5100710;27;45796;-78
2022/05/03 14:30:45;;;;;;;;;12.33;12.33;;;;;;;;5100273;27;45348;-79
2022/05/03 14:33:10;;;;;;;;;20.67;20.33;;;;;;;;5099257;27;45345;-79
2022/05/03 14:35:35;;;;;;;;;20.00;19.50;;;;;;;;5100136;27;45270;-80
2022/05/03 14:38:00;;;;;;;;;23.33;20.33;;;;;;;;5098786;27;48115;-80
2022/05/03 14:40:26;;;;;;;;;25.67;24.00;;;;;;;;5100325;27;45220;-80
2022/05/03 14:42:51;;;;;;;;;20.00;19.33;;;;;;;;5099014;27;45261;-79
2022/05/03 14:45:18;;;;;;;;;29.67;29.00;;;;;;;;5115968;27;47520;-78
2022/05/03 14:47:43;;;;;;;;;35.33;30.00;;;;;;;;5098958;27;48150;-79
2022/05/03 14:50:08;;;;;;;;;22.67;22.67;;;;;;;;5100046;27;45326;-78
2022/05/03 14:52:34;;;;;;;;;25.67;24.33;;;;;;;;5100088;27;45540;-79
2022/05/03 14:54:59;;;;;;;;;14.00;12.33;;;;;;;;5100052;27;45453;-78
2022/05/03 15:02:54;;;;;;;;;11.67;10.67;;;;;;;;5099926;27;45176;-79
2022/05/03 15:05:21;;;;;;;;;13.33;12.67;;;;;;;;5099836;27;45490;-81